Share

Yamaguchi Ube, Japan

Kitakyushu (RJFR) Elev 30 ft | 33.85 °N, 131.04 °E | Change Station

Current weather conditions updated 22 minutes ago

Light Drizzle
Light Drizzle Mist
55 °F
Feels Like 55 °F
N
1
Wind Variable Wind from Variable
Sunrise 5:41 AM
Sunset 6:48 PM
Moon Waning Gibbous

Today is forecast to be nearly the same temperature as yesterday. Light rain in the morning.

Pressure 29.83 in
Visibility 1.9 miles
Clouds Few 300 ft
Mostly Cloudy 400 ft
Mostly Cloudy 800 ft
Dew Point 55 °F
Humidity 100%
Rainfall 0.00 in
Snow Depth Not available.
UV 0 out of 16
Pollen Not available.
Air Quality Not available.
Flu Activity Not available.
SPECI RJFR 172042Z VRB01KT 3000 -DZ BR FEW003 BKN004 BKN008 13/13 Q1010 RMK 2ST003 6ST004 7ST008 A2983

More Conditions Fewer Conditions

Pressure 29.83 in
Visibility 1.9 miles
Clouds Few 300 ft
Mostly Cloudy 400 ft
Mostly Cloudy 800 ft
Dew Point 55 °F
Humidity 100%
Rainfall 0.00 in
Snow Depth Not available.
UV 0 out of 16
Pollen Not available.
Air Quality Not available.
Flu Activity Not available.
SPECI RJFR 172042Z VRB01KT 3000 -DZ BR FEW003 BKN004 BKN008 13/13 Q1010 RMK 2ST003 6ST004 7ST008 A2983

More Conditions Fewer Conditions

10-Day Forecast

Almanac

Astronomy

Apr. 18, 2014 Rise Set
Actual Time 5:41 AM JST 6:48 PM JST
Civil Twilight 5:15 AM JST 7:13 PM JST
Nautical Twilight 4:44 AM JST 7:44 PM JST
Astronomical Twilight 4:12 AM JST 8:16 PM JST
Moon 9:51 PM JST (4/18) 7:36 AM JST (4/18)
Length of Visible Light 13h 58m
Length of Day
13h 06m
Tomorrow will be 1m 59s longer.
Waning Gibbous, 92% of the Moon is Illuminated
Apr 17
Waning Gibbous
Apr 22
Last Quarter
Apr 29
New
May 6
First Quarter
May 14
Full

Yesterday's Extremes

Country Highs Country Lows

Community

  • Morning Light
    Morning Light
  • New Day
    New Day
  • Lake Michigan Sunrise
    Lake Michigan Sunrise
  • sunset from izmir, narlıdere
    sunset from izmir, narlıdere
  • oregon cherry
    oregon cherry

WunderPhotos

Upload Photos

1,702,123 photos uploaded!

Nearby

Snow Depth

Not available.

Coastal Water Temperatures

Place Temperature
No Stations Reporting

Earthquake Activity

City Distance Mag. Time & Date
No recent earthquake activity has been reported nearby.
Minimum magnitude displayed is 2.5.

Nearby Weather Stations

There are no personal weather stations in this area.

What do you think?

We're not finished. Please let us know what you like, what you don't like, and what you are still missing.